Hlavní strana
METAR-TAF:

METAR-TAF

Letiště :

Caracas, Venezuela

zeměpisná šířka: 10-36N, zeměpisná délka: 066-59W, výška: 43 m

Aktuální stav počasí

Zpráva byla vytvořena před 25 minutami, v 02:00 UTC
Teplota 26°C
Vlhkost vzduchu 84%
Tlak 1011 hPa
Viditelnost 10 km a více
Polojasno ve výšce 1600 ft

METAR: SVMI 240200Z /////KT 9999 SCT016 26/23 Q1011

Čas: 22:25 (02:25 UTC)

Předpověď počasí

Zpráva byla vytvořena před 10 hodinami a 25 minutami, v 16:00 UTC
Předpověď platná od 23 v 18 UTC do 24 v 18 UTC
Severoseverozápadní vítr 5 kt
Viditelnost 10 km a více
Skoro jasno ve výšce 1600 ft
Změna
od 23 v 08 UTC do 23 v 12 UTC
Jihozápadní vítr 5 kt
Viditelnost 10 km a více
Polojasno ve výšce 1600 ft

TAF: SVMI 231600Z 2318/2418 33005KT 9999 FEW016 TX31/18Z TN25/09Z BECMG 2308/2312 23005KT 9999 SCT016

Stav a předpovědi počasí z více než 4 000 letišť (zprávy METAR a TAF).

Červené a žluté tečky na mapě představují dostupné meteorologické stanice.

Když kurzor umístíte na tečku, zobrazí se název stanice.

Pak kliknutím zobrazíte stav a předpověď počasí.

Chcete-li změnit mapu, kliknutím na zelené tlačítko se znaménkem +mapu přiblížíte, kliknutím na zelené tlačítko se znaménkem – mapu oddálíte a kliknutím na zelené šipky přejdete na sousední mapy.


METAR-TAF: